»·PEaware :: WAT380 KRNO-KMRY

WAT380 :: KRNO-KMRY

FLIGHT INFORMATION

Flight Status: Arrived
Operator:
Walker Air Transport
More flights by this operator :: More flights under this callsign
Pilot: Spencer M. (27733)
Aircraft: CIRRUS VISIONJET
(SF50)
More flights by this aircraft type
Origin: KRNO Reno/Tahoe Intl
United States
Destination: KMRY Monterey Peninsula
United States
More flights between these airports :: More routes between these airports
Route: +ZEFFR6 MRLET MOD V111 SNS
File this flight plan on PilotEdge
Remarks:
Altitude:
(Current/Filed)
16,000ft
Speed:
(Current/Filed)
220kts
Departed: 23-Oct-20 11:42 AM
Arrived: 23-Oct-20 12:42 PM
Distance/Time
Traveled:
200nm/1:00
Distance/Time
To Go:
Arrived

Flight Plot

Page will automatically refresh every two minutes.

Flight plan parsing failed; only flown route is shown


Map Options




Map Legend


Flown Route
Filed Route
Departure Airport
Arrival Airport
Navaid (VOR, NDB)
Fix

Horizontal Profiles

Position Reports

Time Latitude Longitude Heading Altitude Ground
Speed
23-Oct-20 11:23 39.501868 -119.764728 270 4419ft 0kts
23-Oct-20 11:24 39.501868 -119.764728 270 4419ft 0kts
23-Oct-20 11:25 39.501868 -119.764728 270 4419ft 0kts
23-Oct-20 11:26 39.501868 -119.764728 270 4419ft 0kts
23-Oct-20 11:27 39.501868 -119.764728 270 4419ft 0kts
23-Oct-20 11:28 39.501868 -119.764728 270 4419ft 0kts
23-Oct-20 11:29 39.501868 -119.764728 270 4419ft 0kts
23-Oct-20 11:30 39.501868 -119.764728 270 4419ft 0kts
23-Oct-20 11:31 39.501868 -119.764728 270 4419ft 0kts
23-Oct-20 11:32 39.501868 -119.764728 270 4419ft 0kts
23-Oct-20 11:33 39.502376 -119.764758 132 4419ft 9kts
23-Oct-20 11:34 39.501932 -119.765721 0 4419ft 9kts
23-Oct-20 11:35 39.505453 -119.765708 0 4419ft 15kts
23-Oct-20 11:36 39.509978 -119.765658 21 4419ft 15kts
23-Oct-20 11:37 39.513707 -119.765456 298 4419ft 8kts
23-Oct-20 11:38 39.513748 -119.765720 271 4419ft 0kts
23-Oct-20 11:39 39.513748 -119.765720 271 4419ft 0kts
23-Oct-20 11:40 39.513746 -119.765924 269 4419ft 4kts
23-Oct-20 11:41 39.502849 -119.766741 179 4419ft 112kts
23-Oct-20 11:42 39.461778 -119.766914 183 5308ft 177kts
23-Oct-20 11:43 39.405717 -119.769381 180 6646ft 224kts
23-Oct-20 11:44 39.339872 -119.769625 180 8083ft 245kts
23-Oct-20 11:45 39.272125 -119.783503 193 9585ft 251kts
23-Oct-20 11:46 39.204092 -119.803116 194 11091ft 251kts
23-Oct-20 11:47 39.136436 -119.822523 193 12596ft 247kts
23-Oct-20 11:48 39.077449 -119.863608 212 14091ft 240kts
23-Oct-20 11:49 39.020791 -119.907334 213 15596ft 234kts
23-Oct-20 11:51 38.962032 -119.952602 212 16019ft 267kts
23-Oct-20 11:52 38.896801 -120.002738 212 16009ft 272kts
23-Oct-20 11:53 38.831937 -120.052492 212 16008ft 271kts
23-Oct-20 11:54 38.767115 -120.102123 211 16008ft 272kts
23-Oct-20 11:55 38.701701 -120.152096 211 16008ft 274kts
23-Oct-20 11:56 38.636164 -120.202053 210 16009ft 275kts
23-Oct-20 11:57 38.570288 -120.252157 210 16006ft 275kts
23-Oct-20 11:58 38.504495 -120.302091 210 15983ft 276kts
23-Oct-20 11:59 38.438532 -120.352049 210 15951ft 276kts
23-Oct-20 12:00 38.372557 -120.401909 210 15964ft 277kts
23-Oct-20 12:01 38.306162 -120.451979 210 15988ft 277kts
23-Oct-20 12:02 38.239817 -120.501904 210 15981ft 278kts
23-Oct-20 12:03 38.173313 -120.551841 210 16018ft 277kts
23-Oct-20 12:04 38.106941 -120.601573 210 16018ft 278kts
23-Oct-20 12:05 38.040188 -120.651482 210 15997ft 279kts
23-Oct-20 12:05 37.984486 -120.693044 210 15990ft 279kts
23-Oct-20 12:07 37.906463 -120.751141 210 16008ft 278kts
23-Oct-20 12:08 37.839547 -120.800855 210 16010ft 278kts
23-Oct-20 12:08 37.783869 -120.842137 210 16010ft 279kts
23-Oct-20 12:10 37.706027 -120.899732 210 16009ft 279kts
23-Oct-20 12:10 37.650111 -120.941016 210 16009ft 279kts
23-Oct-20 12:11 37.582438 -120.988288 208 16009ft 279kts
23-Oct-20 12:12 37.514254 -121.034526 208 16009ft 279kts
23-Oct-20 12:13 37.445935 -121.080746 208 16009ft 279kts
23-Oct-20 12:14 37.377449 -121.126983 208 16009ft 279kts
23-Oct-20 12:15 37.309274 -121.172913 208 16009ft 279kts
23-Oct-20 12:16 37.241371 -121.218567 208 16020ft 273kts
23-Oct-20 12:17 37.175014 -121.263089 208 16046ft 268kts
23-Oct-20 12:18 37.109390 -121.307032 208 16063ft 267kts
23-Oct-20 12:19 37.043923 -121.350784 208 16064ft 267kts
23-Oct-20 12:20 36.978484 -121.394430 208 16004ft 268kts
23-Oct-20 12:21 36.913400 -121.437788 208 15668ft 264kts
23-Oct-20 12:22 36.850597 -121.479521 208 14056ft 247kts
23-Oct-20 12:23 36.792047 -121.518351 208 12552ft 231kts
23-Oct-20 12:24 36.736307 -121.555254 208 10863ft 222kts
23-Oct-20 12:25 36.682635 -121.590718 207 9058ft 216kts
23-Oct-20 12:26 36.626940 -121.583299 155 7324ft 206kts
23-Oct-20 12:27 36.576408 -121.556255 155 6157ft 192kts
23-Oct-20 12:28 36.529644 -121.531218 155 6109ft 181kts
23-Oct-20 12:29 36.483438 -121.506515 155 6109ft 181kts
23-Oct-20 12:30 36.456493 -121.459239 109 6109ft 175kts
23-Oct-20 12:31 36.439983 -121.402866 92 6106ft 171kts
23-Oct-20 12:32 36.470568 -121.403642 275 6120ft 182kts
23-Oct-20 12:33 36.470340 -121.467417 270 6110ft 185kts
23-Oct-20 12:34 36.476694 -121.531443 291 5756ft 201kts
23-Oct-20 12:35 36.500111 -121.597633 297 4938ft 212kts
23-Oct-20 12:36 36.524227 -121.662890 294 3862ft 203kts
23-Oct-20 12:37 36.545880 -121.724411 293 2812ft 156kts
23-Oct-20 12:38 36.561091 -121.768728 295 1857ft 127kts
23-Oct-20 12:39 36.572501 -121.801672 296 1034ft 98kts
23-Oct-20 12:40 36.582826 -121.832240 296 357ft 90kts
23-Oct-20 12:41 36.586860 -121.845973 212 259ft 2kts
23-Oct-20 12:42 36.588109 -121.850198 295 259ft 17kts
23-Oct-20 12:43 36.588554 -121.853476 116 259ft 6kts

Navigation Log

Ident Type
Flight plan parsing failed, navigation log unavailable